<?xml version="1.0" encoding="UTF-8"?>
<gpx version="1.1" creator="https://www.youtrack.es" xsi:schemaLocation="http://www.topografix.com/GPX/1/1 http://www.topografix.com/GPX/1/1/gpx.xsd http://www.garmin.com/xmlschemas/GpxExtensions/v3 http://www.garmin.com/xmlschemas/GpxExtensionsv3.xsd http://www.garmin.com/xmlschemas/TrackPointExtension/v1 http://www.garmin.com/xmlschemas/TrackPointExtensionv1.xsd" xmlns:gpxtpx="http://www.garmin.com/xmlschemas/TrackPointExtension/v1" xmlns:gpxx="http://www.garmin.com/xmlschemas/GpxExtensions/v3" xmlns:xsi="http://www.w3.org/2001/XMLSchema-instance">
  <metadata>
    <link href="https://www.youtrack.es">
      <text>YouTrack.es</text>
    </link>
    <time>2026-05-08T12:37:19Z</time>
  </metadata>
  <trk>
    <src>https://www.youtrack.es</src>
    <link href="https://www.youtrack.es/ruta/805-24km-rio-trevelez-piedra-yunque-goteron-calderetas-puntal-vacares-calderetas-goteron-yunque">
      <text>YouTrack.es</text>
    </link>
    <trkseg>
      <trkpt lat="37.002332" lon="-3.2690979999999854">
        <ele>1451.738</ele>
      </trkpt>
      <trkpt lat="37.002509" lon="-3.26848700000005">
        <ele>1542.18</ele>
      </trkpt>
      <trkpt lat="37.002393" lon="-3.2661990000000287">
        <ele>1552.736</ele>
      </trkpt>
      <trkpt lat="37.002955" lon="-3.2652610000000095">
        <ele>1547.407</ele>
      </trkpt>
      <trkpt lat="37.00376" lon="-3.264601999999968">
        <ele>1546.97</ele>
      </trkpt>
      <trkpt lat="37.004032" lon="-3.2637540000000627">
        <ele>1544.597</ele>
      </trkpt>
      <trkpt lat="37.004924" lon="-3.2637399999999843">
        <ele>1533.908</ele>
      </trkpt>
      <trkpt lat="37.00515" lon="-3.2620919999999387">
        <ele>1512.833</ele>
      </trkpt>
      <trkpt lat="37.005903" lon="-3.259951000000001">
        <ele>1490.239</ele>
      </trkpt>
      <trkpt lat="37.006294" lon="-3.25965199999996">
        <ele>1487.883</ele>
      </trkpt>
      <trkpt lat="37.00629" lon="-3.2593389999999545">
        <ele>1487.311</ele>
      </trkpt>
      <trkpt lat="37.007332" lon="-3.2586129999999685">
        <ele>1473.889</ele>
      </trkpt>
      <trkpt lat="37.008248" lon="-3.258622999999943">
        <ele>1490.719</ele>
      </trkpt>
      <trkpt lat="37.009742" lon="-3.25755700000002">
        <ele>1515.707</ele>
      </trkpt>
      <trkpt lat="37.010815" lon="-3.2563279999999395">
        <ele>1516.694</ele>
      </trkpt>
      <trkpt lat="37.012912" lon="-3.255249000000049">
        <ele>1522.404</ele>
      </trkpt>
      <trkpt lat="37.014164" lon="-3.2553310000000693">
        <ele>1524.307</ele>
      </trkpt>
      <trkpt lat="37.015114" lon="-3.25444200000004">
        <ele>1518.52</ele>
      </trkpt>
      <trkpt lat="37.01628" lon="-3.254114999999956">
        <ele>1527.729</ele>
      </trkpt>
      <trkpt lat="37.016904" lon="-3.2538190000000213">
        <ele>1531.044</ele>
      </trkpt>
      <trkpt lat="37.017678" lon="-3.254139000000009">
        <ele>1529.107</ele>
      </trkpt>
      <trkpt lat="37.019086" lon="-3.25343399999997">
        <ele>1540.212</ele>
      </trkpt>
      <trkpt lat="37.01946" lon="-3.253021999999987">
        <ele>1543.517</ele>
      </trkpt>
      <trkpt lat="37.020797" lon="-3.2537139999999454">
        <ele>1545.9</ele>
      </trkpt>
      <trkpt lat="37.022493" lon="-3.2537300000000187">
        <ele>1555.107</ele>
      </trkpt>
      <trkpt lat="37.024616" lon="-3.251671999999985">
        <ele>1566.119</ele>
      </trkpt>
      <trkpt lat="37.025098" lon="-3.2512719999999717">
        <ele>1570.589</ele>
      </trkpt>
      <trkpt lat="37.02524" lon="-3.2505710000000363">
        <ele>1571.917</ele>
      </trkpt>
      <trkpt lat="37.025893" lon="-3.2499330000000555">
        <ele>1574.373</ele>
      </trkpt>
      <trkpt lat="37.029058" lon="-3.2500609999999597">
        <ele>1593.573</ele>
      </trkpt>
      <trkpt lat="37.029926" lon="-3.2502570000000333">
        <ele>1603.613</ele>
      </trkpt>
      <trkpt lat="37.030876" lon="-3.2490679999999657">
        <ele>1611.335</ele>
      </trkpt>
      <trkpt lat="37.031393" lon="-3.2486840000000257">
        <ele>1614.28</ele>
      </trkpt>
      <trkpt lat="37.032147" lon="-3.2484660000000076">
        <ele>1623.321</ele>
      </trkpt>
      <trkpt lat="37.03459" lon="-3.2470200000000204">
        <ele>1649.391</ele>
      </trkpt>
      <trkpt lat="37.035313" lon="-3.2461829999999736">
        <ele>1657.941</ele>
      </trkpt>
      <trkpt lat="37.036383" lon="-3.245973999999933">
        <ele>1664.253</ele>
      </trkpt>
      <trkpt lat="37.038582" lon="-3.244544000000019">
        <ele>1691.117</ele>
      </trkpt>
      <trkpt lat="37.03998" lon="-3.244122999999945">
        <ele>1704.152</ele>
      </trkpt>
      <trkpt lat="37.041086" lon="-3.243186000000037">
        <ele>1712.714</ele>
      </trkpt>
      <trkpt lat="37.042802" lon="-3.2435279999999693">
        <ele>1738.274</ele>
      </trkpt>
      <trkpt lat="37.043645" lon="-3.243408000000045">
        <ele>1755.566</ele>
      </trkpt>
      <trkpt lat="37.043981" lon="-3.2426189999999906">
        <ele>1750.704</ele>
      </trkpt>
      <trkpt lat="37.045542" lon="-3.2421259999999847">
        <ele>1762.794</ele>
      </trkpt>
      <trkpt lat="37.045708" lon="-3.242222999999967">
        <ele>1768.029</ele>
      </trkpt>
      <trkpt lat="37.045567" lon="-3.2421359999999595">
        <ele>1767.036</ele>
      </trkpt>
      <trkpt lat="37.045586" lon="-3.242163">
        <ele>1774.545</ele>
        <time>2018-05-27T19:12:36Z</time>
      </trkpt>
      <trkpt lat="37.045366" lon="-3.242571">
        <ele>1774.147</ele>
        <time>2018-05-27T19:13:16Z</time>
      </trkpt>
      <trkpt lat="37.046599" lon="-3.244845">
        <ele>1876.711</ele>
        <time>2018-05-27T19:13:56Z</time>
      </trkpt>
      <trkpt lat="37.048352" lon="-3.246455">
        <ele>1967.108</ele>
        <time>2018-05-27T19:14:36Z</time>
      </trkpt>
      <trkpt lat="37.049722" lon="-3.248601">
        <ele>2100.836</ele>
        <time>2018-05-27T19:15:16Z</time>
      </trkpt>
      <trkpt lat="37.050672" lon="-3.251169">
        <ele>2156.619</ele>
        <time>2018-05-27T19:15:56Z</time>
      </trkpt>
      <trkpt lat="37.051812" lon="-3.253450">
        <ele>2225.966</ele>
        <time>2018-05-27T19:16:36Z</time>
      </trkpt>
      <trkpt lat="37.052839" lon="-3.255939">
        <ele>2296.742</ele>
        <time>2018-05-27T19:17:16Z</time>
      </trkpt>
      <trkpt lat="37.053867" lon="-3.258385">
        <ele>2375.578</ele>
        <time>2018-05-27T19:17:56Z</time>
      </trkpt>
      <trkpt lat="37.054860" lon="-3.260831">
        <ele>2485.972</ele>
        <time>2018-05-27T19:18:36Z</time>
      </trkpt>
      <trkpt lat="37.055853" lon="-3.263278">
        <ele>2555.941</ele>
        <time>2018-05-27T19:19:16Z</time>
      </trkpt>
      <trkpt lat="37.056709" lon="-3.265852">
        <ele>2616.217</ele>
        <time>2018-05-27T19:19:56Z</time>
      </trkpt>
      <trkpt lat="37.057189" lon="-3.268427">
        <ele>2655.152</ele>
        <time>2018-05-27T19:20:36Z</time>
      </trkpt>
      <trkpt lat="37.057805" lon="-3.271002">
        <ele>2707.453</ele>
        <time>2018-05-27T19:21:16Z</time>
      </trkpt>
      <trkpt lat="37.058285" lon="-3.273706">
        <ele>2774.608</ele>
        <time>2018-05-27T19:21:56Z</time>
      </trkpt>
      <trkpt lat="37.058579" lon="-3.276498">
        <ele>2835.308</ele>
        <time>2018-05-27T19:22:36Z</time>
      </trkpt>
      <trkpt lat="37.058849" lon="-3.278080">
        <ele>2878.657</ele>
        <time>2018-05-27T19:23:16Z</time>
      </trkpt>
      <trkpt lat="37.058980" lon="-3.279401">
        <ele>2895.660</ele>
        <time>2018-05-27T19:23:56Z</time>
      </trkpt>
      <trkpt lat="37.058983" lon="-3.2792799999999716">
        <ele>2893.021</ele>
      </trkpt>
      <trkpt lat="37.060547" lon="-3.278297000000066">
        <ele>2914.011</ele>
      </trkpt>
      <trkpt lat="37.06036" lon="-3.278744999999958">
        <ele>2910.092</ele>
      </trkpt>
      <trkpt lat="37.06175" lon="-3.28163799999993">
        <ele>2832.015</ele>
      </trkpt>
      <trkpt lat="37.062355" lon="-3.2857649999999694">
        <ele>2790.094</ele>
      </trkpt>
      <trkpt lat="37.063563" lon="-3.287027999999964">
        <ele>2806.057</ele>
      </trkpt>
      <trkpt lat="37.066268" lon="-3.2868120000000545">
        <ele>2823.052</ele>
      </trkpt>
      <trkpt lat="37.066948" lon="-3.28612499999997">
        <ele>2821.099</ele>
      </trkpt>
      <trkpt lat="37.066965" lon="-3.285394999999994">
        <ele>2819.067</ele>
      </trkpt>
      <trkpt lat="37.068505" lon="-3.283504999999991">
        <ele>2803.01</ele>
      </trkpt>
      <trkpt lat="37.068782" lon="-3.283860000000004">
        <ele>2803.047</ele>
      </trkpt>
      <trkpt lat="37.07034" lon="-3.283170000000041">
        <ele>2784.021</ele>
      </trkpt>
      <trkpt lat="37.072027" lon="-3.284599999999955">
        <ele>2802.007</ele>
      </trkpt>
      <trkpt lat="37.074057" lon="-3.284322999999972">
        <ele>2841.045</ele>
      </trkpt>
      <trkpt lat="37.074598" lon="-3.2849049999999806">
        <ele>2855.027</ele>
      </trkpt>
      <trkpt lat="37.075572" lon="-3.2851399999999558">
        <ele>2874.021</ele>
      </trkpt>
      <trkpt lat="37.075862" lon="-3.2841620000000376">
        <ele>2908.056</ele>
      </trkpt>
      <trkpt lat="37.076303" lon="-3.284020000000055">
        <ele>2921.011</ele>
      </trkpt>
      <trkpt lat="37.076753" lon="-3.2846829999999727">
        <ele>2946.082</ele>
      </trkpt>
      <trkpt lat="37.077155" lon="-3.2840720000000374">
        <ele>2968.028</ele>
      </trkpt>
      <trkpt lat="37.077605" lon="-3.2853119999999763">
        <ele>2994.013</ele>
      </trkpt>
      <trkpt lat="37.078438" lon="-3.2853870000000143">
        <ele>3051.034</ele>
      </trkpt>
      <trkpt lat="37.080487" lon="-3.2877019999999675">
        <ele>3121.076</ele>
      </trkpt>
      <trkpt lat="37.080798" lon="-3.2887719999999945">
        <ele>3153.011</ele>
      </trkpt>
      <trkpt lat="37.081138" lon="-3.289139">
        <ele>3080.393</ele>
        <time>2018-05-27T20:57:50Z</time>
      </trkpt>
      <trkpt lat="37.080523" lon="-3.288928">
        <ele>3115.365</ele>
        <time>2018-05-27T20:58:30Z</time>
      </trkpt>
      <trkpt lat="37.080207" lon="-3.288241">
        <ele>3114.921</ele>
        <time>2018-05-27T20:59:10Z</time>
      </trkpt>
      <trkpt lat="37.079573" lon="-3.287039">
        <ele>3089.208</ele>
        <time>2018-05-27T20:59:50Z</time>
      </trkpt>
      <trkpt lat="37.078871" lon="-3.286074">
        <ele>3061.541</ele>
        <time>2018-05-27T21:00:30Z</time>
      </trkpt>
      <trkpt lat="37.078597" lon="-3.285387">
        <ele>3039.444</ele>
        <time>2018-05-27T21:01:10Z</time>
      </trkpt>
      <trkpt lat="37.077742" lon="-3.285516">
        <ele>3003.181</ele>
        <time>2018-05-27T21:01:50Z</time>
      </trkpt>
      <trkpt lat="37.077399" lon="-3.285516">
        <ele>2980.658</ele>
        <time>2018-05-27T21:02:30Z</time>
      </trkpt>
      <trkpt lat="37.076971" lon="-3.284722">
        <ele>2962.429</ele>
        <time>2018-05-27T21:03:10Z</time>
      </trkpt>
      <trkpt lat="37.076149" lon="-3.285838">
        <ele>2918.373</ele>
        <time>2018-05-27T21:03:50Z</time>
      </trkpt>
      <trkpt lat="37.075790" lon="-3.284958">
        <ele>2907.699</ele>
        <time>2018-05-27T21:04:30Z</time>
      </trkpt>
      <trkpt lat="37.075242" lon="-3.286782">
        <ele>2884.963</ele>
        <time>2018-05-27T21:05:10Z</time>
      </trkpt>
      <trkpt lat="37.074719" lon="-3.285027">
        <ele>2878.151</ele>
        <time>2018-05-27T21:05:50Z</time>
      </trkpt>
      <trkpt lat="37.074291" lon="-3.284748">
        <ele>2865.101</ele>
        <time>2018-05-27T21:06:30Z</time>
      </trkpt>
      <trkpt lat="37.072373" lon="-3.284748">
        <ele>2820.711</ele>
        <time>2018-05-27T21:07:10Z</time>
      </trkpt>
      <trkpt lat="37.070607" lon="-3.283450">
        <ele>2788.608</ele>
        <time>2018-05-27T21:07:50Z</time>
      </trkpt>
      <trkpt lat="37.070358" lon="-3.283171">
        <ele>2783.587</ele>
        <time>2018-05-27T21:08:30Z</time>
      </trkpt>
      <trkpt lat="37.068835" lon="-3.283901">
        <ele>2808.260</ele>
        <time>2018-05-27T21:09:10Z</time>
      </trkpt>
      <trkpt lat="37.068458" lon="-3.283579">
        <ele>2803.827</ele>
        <time>2018-05-27T21:09:50Z</time>
      </trkpt>
      <trkpt lat="37.067343" lon="-3.284966">
        <ele>2807.464</ele>
        <time>2018-05-27T21:10:30Z</time>
      </trkpt>
      <trkpt lat="37.066960" lon="-3.285563">
        <ele>2824.165</ele>
        <time>2018-05-27T21:11:10Z</time>
      </trkpt>
      <trkpt lat="37.066930" lon="-3.286175">
        <ele>2830.719</ele>
        <time>2018-05-27T21:11:50Z</time>
      </trkpt>
      <trkpt lat="37.066193" lon="-3.286808">
        <ele>2830.575</ele>
        <time>2018-05-27T21:12:30Z</time>
      </trkpt>
      <trkpt lat="37.065543" lon="-3.286888">
        <ele>2832.229</ele>
        <time>2018-05-27T21:13:10Z</time>
      </trkpt>
      <trkpt lat="37.065226" lon="-3.286883">
        <ele>2828.482</ele>
        <time>2018-05-27T21:13:50Z</time>
      </trkpt>
      <trkpt lat="37.064340" lon="-3.286979">
        <ele>2815.243</ele>
        <time>2018-05-27T21:14:30Z</time>
      </trkpt>
      <trkpt lat="37.064169" lon="-3.287027">
        <ele>2812.217</ele>
        <time>2018-05-27T21:15:10Z</time>
      </trkpt>
      <trkpt lat="37.063667" lon="-3.286991">
        <ele>2812.108</ele>
        <time>2018-05-27T21:15:50Z</time>
      </trkpt>
      <trkpt lat="37.062674" lon="-3.286079">
        <ele>2803.630</ele>
        <time>2018-05-27T21:16:30Z</time>
      </trkpt>
      <trkpt lat="37.062332" lon="-3.285650">
        <ele>2800.193</ele>
        <time>2018-05-27T21:17:10Z</time>
      </trkpt>
      <trkpt lat="37.062178" lon="-3.285317">
        <ele>2799.570</ele>
        <time>2018-05-27T21:17:50Z</time>
      </trkpt>
      <trkpt lat="37.062001" lon="-3.284852">
        <ele>2810.787</ele>
        <time>2018-05-27T21:18:30Z</time>
      </trkpt>
      <trkpt lat="37.061975" lon="-3.284428">
        <ele>2812.368</ele>
        <time>2018-05-27T21:19:10Z</time>
      </trkpt>
      <trkpt lat="37.062052" lon="-3.283715">
        <ele>2807.352</ele>
        <time>2018-05-27T21:19:50Z</time>
      </trkpt>
      <trkpt lat="37.062001" lon="-3.283194">
        <ele>2813.778</ele>
        <time>2018-05-27T21:20:30Z</time>
      </trkpt>
      <trkpt lat="37.061911" lon="-3.282685">
        <ele>2816.782</ele>
        <time>2018-05-27T21:21:10Z</time>
      </trkpt>
      <trkpt lat="37.061752" lon="-3.282036">
        <ele>2820.798</ele>
        <time>2018-05-27T21:21:50Z</time>
      </trkpt>
      <trkpt lat="37.061426" lon="-3.281244">
        <ele>2842.715</ele>
        <time>2018-05-27T21:22:30Z</time>
      </trkpt>
      <trkpt lat="37.061079" lon="-3.280450">
        <ele>2874.426</ele>
        <time>2018-05-27T21:23:10Z</time>
      </trkpt>
      <trkpt lat="37.060883" lon="-3.279827">
        <ele>2884.708</ele>
        <time>2018-05-27T21:23:50Z</time>
      </trkpt>
      <trkpt lat="37.060540" lon="-3.279001">
        <ele>2906.011</ele>
        <time>2018-05-27T21:24:30Z</time>
      </trkpt>
      <trkpt lat="37.060270" lon="-3.278687">
        <ele>2917.534</ele>
        <time>2018-05-27T21:25:10Z</time>
      </trkpt>
      <trkpt lat="37.060433" lon="-3.278371">
        <ele>2911.681</ele>
        <time>2018-05-27T21:25:50Z</time>
      </trkpt>
      <trkpt lat="37.059476" lon="-3.279873">
        <ele>2915.048</ele>
        <time>2018-05-27T21:26:30Z</time>
      </trkpt>
      <trkpt lat="37.058757" lon="-3.279937">
        <ele>2889.359</ele>
        <time>2018-05-27T21:27:10Z</time>
      </trkpt>
      <trkpt lat="37.045592" lon="-3.2935509999999795">
        <ele>3014.014</ele>
      </trkpt>
      <trkpt lat="37.04679" lon="-3.293132000000014">
        <ele>2951.008</ele>
      </trkpt>
      <trkpt lat="37.047822" lon="-3.2931690000000344">
        <ele>2943.033</ele>
      </trkpt>
      <trkpt lat="37.048839" lon="-3.29234299999996">
        <ele>2946.071</ele>
      </trkpt>
      <trkpt lat="37.049437" lon="-3.290895999999975">
        <ele>2940.094</ele>
      </trkpt>
      <trkpt lat="37.049969" lon="-3.28746799999999">
        <ele>2936.076</ele>
      </trkpt>
      <trkpt lat="37.050289" lon="-3.2868590000000495">
        <ele>2934.09</ele>
      </trkpt>
      <trkpt lat="37.052613" lon="-3.285667999999987">
        <ele>2924.078</ele>
      </trkpt>
      <trkpt lat="37.054551" lon="-3.2861829999999372">
        <ele>2912.099</ele>
      </trkpt>
      <trkpt lat="37.05692" lon="-3.283945000000017">
        <ele>2939.017</ele>
      </trkpt>
      <trkpt lat="37.059026" lon="-3.2799159999999574">
        <ele>2950.025</ele>
      </trkpt>
      <trkpt lat="37.05911" lon="-3.2792349999999715">
        <ele>2955.017</ele>
      </trkpt>
      <trkpt lat="37.059735" lon="-3.2794209999999566">
        <ele>2969.008</ele>
      </trkpt>
      <trkpt lat="37.059928" lon="-3.2802689999999757">
        <ele>2978.069</ele>
      </trkpt>
      <trkpt lat="37.059641" lon="-3.2820179999999937">
        <ele>2993.06</ele>
      </trkpt>
      <trkpt lat="37.059927" lon="-3.287117999999964">
        <ele>3078.083</ele>
      </trkpt>
      <trkpt lat="37.060643" lon="-3.289641999999958">
        <ele>3139.029</ele>
      </trkpt>
      <trkpt lat="37.060601" lon="-3.29042800000002">
        <ele>3155.021</ele>
      </trkpt>
      <trkpt lat="37.060952" lon="-3.291066999999998">
        <ele>3166.008</ele>
      </trkpt>
      <trkpt lat="37.061092" lon="-3.2930220000000645">
        <ele>3173.015</ele>
      </trkpt>
      <trkpt lat="37.062399" lon="-3.2966049999999996">
        <ele>3213.066</ele>
      </trkpt>
      <trkpt lat="37.063001" lon="-3.2992790000000696">
        <ele>3268.069</ele>
      </trkpt>
      <trkpt lat="37.063708" lon="-3.2998019999999997">
        <ele>3277.024</ele>
      </trkpt>
      <trkpt lat="37.065602" lon="-3.299425000000042">
        <ele>3320.044</ele>
      </trkpt>
      <trkpt lat="37.066386" lon="-3.299859999999967">
        <ele>3352.05</ele>
      </trkpt>
      <trkpt lat="37.067253" lon="-3.301913000000013">
        <ele>3392.011</ele>
      </trkpt>
      <trkpt lat="37.067862" lon="-3.3010960000000296">
        <ele>3413.071</ele>
      </trkpt>
      <trkpt lat="37.067249" lon="-3.301924999999983">
        <ele>3398.091</ele>
      </trkpt>
      <trkpt lat="37.065718" lon="-3.3021290000000363">
        <ele>3354.032</ele>
      </trkpt>
      <trkpt lat="37.063566" lon="-3.3032160000000204">
        <ele>3322.008</ele>
      </trkpt>
      <trkpt lat="37.061442" lon="-3.301825000000008">
        <ele>3268.088</ele>
      </trkpt>
      <trkpt lat="37.059507" lon="-3.3018429999999626">
        <ele>3160.096</ele>
      </trkpt>
      <trkpt lat="37.058741" lon="-3.3011410000000296">
        <ele>3129.011</ele>
      </trkpt>
      <trkpt lat="37.05774" lon="-3.3013559999999416">
        <ele>3101.023</ele>
      </trkpt>
      <trkpt lat="37.055864" lon="-3.299621000000002">
        <ele>3048.04</ele>
      </trkpt>
      <trkpt lat="37.054038" lon="-3.299258000000009">
        <ele>3040.036</ele>
      </trkpt>
      <trkpt lat="37.049447" lon="-3.294599000000062">
        <ele>2949.074</ele>
      </trkpt>
      <trkpt lat="37.047671" lon="-3.2933510000000297">
        <ele>2940.032</ele>
      </trkpt>
      <trkpt lat="37.046629" lon="-3.293588999999997">
        <ele>2932.008</ele>
      </trkpt>
      <trkpt lat="37.046324" lon="-3.293172000000027">
        <ele>2955.054</ele>
      </trkpt>
      <trkpt lat="37.045628" lon="-3.293525000000045">
        <ele>2994.08</ele>
      </trkpt>
    </trkseg>
  </trk>
</gpx>
